createdAt,value
2019-04-04T00:00:51.116Z,9.40
2019-04-04T00:03:39.776Z,9.30
2019-04-04T00:06:29.046Z,9.00
2019-04-04T00:09:18.512Z,8.90
2019-04-04T00:12:08.064Z,8.80
2019-04-04T00:14:58.391Z,8.60
2019-04-04T00:17:47.806Z,8.50
2019-04-04T00:20:37.230Z,8.50
2019-04-04T00:23:26.027Z,8.50
2019-04-04T00:26:15.359Z,8.40
2019-04-04T00:29:04.490Z,8.20
2019-04-04T00:31:53.702Z,8.20
2019-04-04T00:34:42.367Z,8.20
2019-04-04T00:37:31.463Z,8.10
2019-04-04T00:40:20.684Z,8.10
2019-04-04T00:43:09.993Z,7.90
2019-04-04T00:46:00.755Z,7.80
2019-04-04T00:48:49.938Z,7.90
2019-04-04T00:51:39.662Z,7.90
2019-04-04T00:54:29.186Z,7.90
2019-04-04T00:57:18.863Z,7.90
2019-04-04T01:00:09.784Z,7.90
2019-04-04T01:02:58.971Z,7.90
2019-04-04T01:05:47.893Z,7.90
2019-04-04T01:08:38.860Z,7.80
2019-04-04T01:11:27.065Z,7.80
2019-04-04T01:14:16.404Z,7.70
2019-04-04T01:17:05.913Z,7.70
2019-04-04T01:19:55.274Z,7.70
2019-04-04T01:22:44.110Z,7.70
2019-04-04T01:25:33.500Z,7.60
2019-04-04T01:28:23.158Z,7.70
2019-04-04T01:31:14.618Z,7.60
2019-04-04T01:34:03.053Z,7.70
2019-04-04T01:36:56.161Z,7.60
2019-04-04T01:39:43.284Z,7.60
2019-04-04T01:42:32.142Z,7.60
2019-04-04T01:45:21.670Z,7.50
2019-04-04T01:48:10.754Z,7.50
2019-04-04T01:51:00.310Z,7.50
2019-04-04T01:53:49.980Z,7.50
2019-04-04T01:56:39.565Z,7.50
2019-04-04T01:59:28.583Z,7.60
2019-04-04T02:02:18.617Z,7.60
2019-04-04T02:05:08.802Z,7.60
2019-04-04T02:08:00.554Z,7.50
2019-04-04T02:10:47.956Z,7.50
2019-04-04T02:13:36.890Z,7.40
2019-04-04T02:16:26.103Z,7.30
2019-04-04T02:19:15.200Z,7.20
2019-04-04T02:22:05.199Z,7.20
2019-04-04T02:24:54.927Z,7.10
2019-04-04T02:27:43.873Z,7.00
2019-04-04T02:30:33.258Z,7.00
2019-04-04T02:33:21.838Z,6.90
2019-04-04T02:36:16.246Z,6.90
2019-04-04T02:39:12.528Z,6.90
2019-04-04T02:42:01.901Z,6.90
2019-04-04T02:44:51.373Z,6.80
2019-04-04T02:47:40.447Z,6.70
2019-04-04T02:50:34.408Z,6.80
2019-04-04T02:53:20.635Z,6.90
2019-04-04T02:56:10.404Z,6.90
2019-04-04T02:58:59.456Z,6.80
2019-04-04T03:01:48.849Z,6.80
2019-04-04T03:04:37.707Z,6.80
2019-04-04T03:07:29.843Z,6.90
2019-04-04T03:10:18.525Z,6.90
2019-04-04T03:13:07.567Z,6.80
2019-04-04T03:15:56.933Z,6.80
2019-04-04T03:18:45.698Z,6.70
2019-04-04T03:21:35.051Z,6.70
2019-04-04T03:24:24.035Z,6.70
2019-04-04T03:27:12.680Z,6.70
2019-04-04T03:30:01.721Z,6.60
2019-04-04T03:32:54.557Z,6.60
2019-04-04T03:35:42.007Z,6.60
2019-04-04T03:38:31.037Z,6.70
2019-04-04T03:41:20.557Z,6.70
2019-04-04T03:44:09.638Z,6.70
2019-04-04T03:46:58.580Z,6.60
2019-04-04T03:49:47.443Z,6.60
2019-04-04T03:52:36.507Z,6.60
2019-04-04T03:55:27.861Z,6.50
2019-04-04T03:58:17.193Z,6.50
2019-04-04T04:01:06.775Z,6.50
2019-04-04T04:03:56.193Z,6.40
2019-04-04T04:06:45.415Z,6.50
2019-04-04T04:09:34.746Z,6.50
2019-04-04T04:12:24.401Z,6.50
2019-04-04T04:15:13.408Z,6.60
2019-04-04T04:18:02.804Z,6.60
2019-04-04T04:20:52.265Z,6.70
2019-04-04T04:23:40.987Z,6.70
2019-04-04T04:26:29.897Z,6.70
2019-04-04T04:29:20.300Z,6.70
2019-04-04T04:32:09.639Z,6.70
2019-04-04T04:34:58.232Z,6.70
2019-04-04T04:37:46.971Z,6.80
2019-04-04T04:40:36.316Z,6.70
2019-04-04T04:43:25.807Z,6.80
2019-04-04T04:46:17.830Z,6.80
2019-04-04T04:49:05.503Z,6.80
2019-04-04T04:51:54.839Z,6.90
2019-04-04T04:54:44.151Z,6.90
2019-04-04T04:57:36.633Z,7.00
2019-04-04T05:00:27.411Z,7.00
2019-04-04T05:03:14.819Z,7.10
2019-04-04T05:06:03.967Z,7.10
2019-04-04T05:08:52.886Z,7.10
2019-04-04T05:11:42.287Z,7.20
2019-04-04T05:14:31.956Z,7.20
2019-04-04T05:17:21.339Z,7.20
2019-04-04T05:20:11.151Z,7.30
2019-04-04T05:23:00.601Z,7.40
2019-04-04T05:25:53.961Z,7.40
2019-04-04T05:28:42.108Z,7.40
2019-04-04T05:31:32.196Z,7.40
2019-04-04T05:34:21.085Z,7.50
2019-04-04T05:37:10.630Z,7.60
2019-04-04T05:39:59.836Z,7.60
2019-04-04T05:42:48.944Z,7.70
2019-04-04T05:45:37.630Z,7.80
2019-04-04T05:48:29.071Z,7.80
2019-04-04T05:51:16.985Z,7.90
2019-04-04T05:54:07.516Z,7.90
2019-04-04T05:56:56.673Z,7.80
2019-04-04T05:59:46.000Z,7.90
2019-04-04T06:02:34.887Z,7.90
2019-04-04T06:05:26.891Z,7.90
2019-04-04T06:08:15.157Z,8.00
2019-04-04T06:11:04.293Z,7.90
2019-04-04T06:13:53.549Z,7.90
2019-04-04T06:16:42.649Z,7.90
2019-04-04T06:19:31.783Z,8.00
2019-04-04T06:22:21.190Z,8.00
2019-04-04T06:25:11.824Z,8.00
2019-04-04T06:28:01.656Z,7.90
2019-04-04T06:30:53.426Z,7.90
2019-04-04T06:33:41.239Z,7.90
2019-04-04T06:36:30.507Z,8.00
2019-04-04T06:39:19.411Z,8.00
2019-04-04T06:42:11.258Z,8.00
2019-04-04T06:44:59.516Z,8.00
2019-04-04T06:47:48.411Z,7.90
2019-04-04T06:50:39.990Z,8.00
2019-04-04T06:53:28.195Z,8.10
2019-04-04T06:56:17.538Z,8.20
2019-04-04T06:59:07.020Z,8.20
2019-04-04T07:01:56.186Z,8.20
2019-04-04T07:04:45.536Z,8.30
2019-04-04T07:07:35.448Z,8.30
2019-04-04T07:10:24.702Z,8.40
2019-04-04T07:13:21.710Z,8.30
2019-04-04T07:16:07.780Z,8.50
2019-04-04T07:18:56.066Z,8.50
2019-04-04T07:21:45.167Z,8.60
2019-04-04T07:24:34.195Z,8.60
2019-04-04T07:27:23.715Z,8.70
2019-04-04T07:30:15.275Z,8.90
2019-04-04T07:33:02.971Z,9.00
2019-04-04T07:35:52.387Z,9.00
2019-04-04T07:38:42.015Z,9.00
2019-04-04T07:41:30.782Z,8.90
2019-04-04T07:44:21.156Z,9.00
2019-04-04T07:47:11.160Z,9.10
2019-04-04T07:49:59.680Z,9.40
2019-04-04T07:52:49.075Z,9.50
2019-04-04T07:55:40.133Z,9.70
2019-04-04T07:58:29.663Z,9.70
2019-04-04T08:01:18.722Z,9.80
2019-04-04T08:04:08.213Z,9.80
2019-04-04T08:06:57.789Z,9.80
2019-04-04T08:09:47.307Z,9.80
2019-04-04T08:12:36.940Z,9.70
2019-04-04T08:15:26.001Z,9.50
2019-04-04T08:18:15.475Z,9.40
2019-04-04T08:21:05.836Z,9.30
2019-04-04T08:23:55.443Z,9.40
2019-04-04T08:26:44.953Z,9.20
2019-04-04T08:29:34.303Z,9.30
2019-04-04T08:32:23.872Z,9.40
2019-04-04T08:35:13.484Z,9.40
2019-04-04T08:38:02.927Z,9.40
2019-04-04T08:40:51.979Z,9.50
2019-04-04T08:43:41.489Z,9.60
2019-04-04T08:46:30.541Z,9.90
2019-04-04T08:49:18.987Z,10.00
2019-04-04T08:52:16.542Z,10.10
2019-04-04T08:54:56.762Z,10.10
2019-04-04T08:57:45.961Z,10.30
2019-04-04T09:00:35.009Z,10.30
2019-04-04T09:03:24.299Z,10.20
2019-04-04T09:06:12.798Z,10.20
2019-04-04T09:09:02.095Z,10.20
2019-04-04T09:11:50.954Z,10.40
2019-04-04T09:14:41.278Z,10.40
2019-04-04T09:17:30.336Z,10.50
2019-04-04T09:20:18.916Z,10.40
2019-04-04T09:23:08.369Z,10.20
2019-04-04T09:26:05.392Z,10.10
2019-04-04T09:28:49.164Z,10.20
2019-04-04T09:31:38.532Z,10.30
2019-04-04T09:34:28.012Z,10.50
2019-04-04T09:37:17.589Z,10.60
2019-04-04T09:40:08.213Z,10.50
2019-04-04T09:42:57.773Z,10.50
2019-04-04T09:45:47.016Z,10.50
2019-04-04T09:48:36.571Z,10.50
2019-04-04T09:51:25.564Z,10.50
2019-04-04T09:54:15.051Z,10.40
2019-04-04T09:57:03.587Z,10.50
2019-04-04T09:59:52.248Z,10.60
2019-04-04T10:02:42.243Z,10.60
2019-04-04T10:05:31.543Z,10.60
2019-04-04T10:08:20.469Z,10.50
2019-04-04T10:11:09.951Z,10.60
2019-04-04T10:13:59.213Z,10.60
2019-04-04T10:16:48.093Z,10.50
2019-04-04T10:19:37.137Z,10.60
2019-04-04T10:22:26.412Z,10.50
2019-04-04T10:25:15.566Z,10.60
2019-04-04T10:28:04.646Z,10.80
2019-04-04T10:30:54.233Z,10.80
2019-04-04T10:33:43.633Z,10.80
2019-04-04T10:36:32.708Z,10.80
2019-04-04T10:39:28.804Z,10.80
2019-04-04T10:42:12.469Z,10.50
2019-04-04T10:45:02.576Z,10.40
2019-04-04T10:47:51.363Z,10.50
2019-04-04T10:50:40.091Z,10.70
2019-04-04T10:53:29.385Z,10.80
2019-04-04T10:56:19.065Z,10.90
2019-04-04T10:59:08.030Z,11.00
2019-04-04T11:02:00.684Z,11.10
2019-04-04T11:04:48.415Z,11.10
2019-04-04T11:07:37.041Z,11.30
2019-04-04T11:10:26.336Z,11.40
2019-04-04T11:13:15.706Z,11.40
2019-04-04T11:16:04.366Z,11.50
2019-04-04T11:18:52.818Z,11.70
2019-04-04T11:21:40.804Z,11.70
2019-04-04T11:24:29.232Z,11.50
2019-04-04T11:27:17.617Z,11.60
2019-04-04T11:30:07.672Z,11.80
2019-04-04T11:32:55.991Z,11.80
2019-04-04T11:35:43.966Z,11.90
2019-04-04T11:38:32.590Z,12.10
2019-04-04T11:41:21.081Z,12.00
2019-04-04T11:44:09.689Z,12.00
2019-04-04T11:46:57.968Z,11.70
2019-04-04T11:49:46.397Z,11.80
2019-04-04T11:52:34.318Z,11.60
2019-04-04T11:55:22.466Z,11.70
2019-04-04T11:58:10.916Z,11.70
2019-04-04T12:01:00.758Z,11.70
2019-04-04T12:03:48.740Z,11.60
2019-04-04T12:06:36.925Z,11.70
2019-04-04T12:09:25.547Z,11.60
2019-04-04T12:12:13.797Z,11.80
2019-04-04T12:15:02.960Z,11.80
2019-04-04T12:17:50.774Z,11.80
2019-04-04T12:20:38.935Z,11.80
2019-04-04T12:23:27.586Z,11.70
2019-04-04T12:26:15.177Z,11.70
2019-04-04T12:29:03.567Z,11.70
2019-04-04T12:31:51.691Z,11.70
2019-04-04T12:34:40.257Z,11.60
2019-04-04T12:37:28.437Z,11.40
2019-04-04T12:40:20.970Z,11.50
2019-04-04T12:43:06.018Z,11.60
2019-04-04T12:45:54.570Z,11.50
2019-04-04T12:48:42.921Z,11.50
2019-04-04T12:51:31.591Z,11.60
2019-04-04T12:54:19.610Z,11.50
2019-04-04T12:57:08.137Z,11.60
2019-04-04T12:59:56.546Z,11.70
2019-04-04T13:02:44.595Z,11.80
2019-04-04T13:05:33.238Z,11.80
2019-04-04T13:08:21.664Z,11.90
2019-04-04T13:11:09.917Z,12.00
2019-04-04T13:13:58.250Z,12.00
2019-04-04T13:16:46.625Z,11.90
2019-04-04T13:19:35.061Z,11.80
2019-04-04T13:22:23.306Z,11.90
2019-04-04T13:25:11.783Z,12.00
2019-04-04T13:28:00.031Z,12.00
2019-04-04T13:30:48.753Z,12.00
2019-04-04T13:33:37.261Z,12.20
2019-04-04T13:36:25.451Z,12.10
2019-04-04T13:39:14.002Z,12.10
2019-04-04T13:42:01.925Z,12.20
2019-04-04T13:44:50.649Z,12.40
2019-04-04T13:47:40.456Z,12.20
2019-04-04T13:50:29.611Z,12.10
2019-04-04T13:53:20.624Z,12.00
2019-04-04T13:56:07.576Z,12.00
2019-04-04T13:58:55.710Z,12.20
2019-04-04T14:01:44.092Z,12.20
2019-04-04T14:04:32.608Z,12.40
2019-04-04T14:07:21.003Z,12.60
2019-04-04T14:10:10.290Z,12.80
2019-04-04T14:12:58.473Z,12.80
2019-04-04T14:15:46.922Z,13.00
2019-04-04T14:18:39.794Z,13.30
2019-04-04T14:21:25.457Z,13.60
2019-04-04T14:24:14.629Z,13.70
2019-04-04T14:27:03.934Z,13.60
2019-04-04T14:29:55.308Z,13.50
2019-04-04T14:32:43.644Z,13.40
2019-04-04T14:35:33.392Z,13.50
2019-04-04T14:38:22.582Z,13.60
2019-04-04T14:41:12.029Z,13.30
2019-04-04T14:44:01.261Z,13.20
2019-04-04T14:46:49.762Z,13.20
2019-04-04T14:49:39.069Z,13.20
2019-04-04T14:52:28.063Z,13.10
2019-04-04T14:55:17.973Z,13.00
2019-04-04T14:58:07.680Z,12.80
2019-04-04T15:00:56.769Z,12.80
2019-04-04T15:03:45.528Z,12.80
2019-04-04T15:06:34.378Z,12.90
2019-04-04T15:09:23.760Z,12.90
2019-04-04T15:12:13.069Z,13.00
2019-04-04T15:15:02.190Z,13.10
2019-04-04T15:17:51.122Z,13.10
2019-04-04T15:20:39.804Z,13.10
2019-04-04T15:23:28.663Z,13.10
2019-04-04T15:26:18.241Z,13.00
2019-04-04T15:29:07.167Z,13.00
2019-04-04T15:31:56.228Z,12.90
2019-04-04T15:34:45.245Z,12.80
2019-04-04T15:37:34.152Z,12.80
2019-04-04T15:40:23.361Z,12.60
2019-04-04T15:43:12.534Z,12.60
2019-04-04T15:46:01.900Z,12.60
2019-04-04T15:48:50.691Z,12.50
2019-04-04T15:51:39.616Z,12.40
2019-04-04T15:54:29.318Z,12.30
2019-04-04T15:57:18.659Z,12.20
2019-04-04T16:00:09.783Z,12.10
2019-04-04T16:02:58.466Z,11.90
2019-04-04T16:05:47.607Z,11.90
2019-04-04T16:08:36.550Z,11.90
2019-04-04T16:11:25.937Z,11.90
2019-04-04T16:14:15.102Z,11.80
2019-04-04T16:17:04.462Z,11.70
2019-04-04T16:19:54.155Z,11.80
2019-04-04T16:22:43.127Z,11.80
2019-04-04T16:25:32.597Z,11.90
2019-04-04T16:28:21.585Z,12.00
2019-04-04T16:31:10.925Z,12.00
2019-04-04T16:33:59.864Z,12.10
2019-04-04T16:36:49.360Z,12.10
2019-04-04T16:39:38.427Z,12.00
2019-04-04T16:42:27.371Z,12.00
2019-04-04T16:45:16.989Z,12.00
2019-04-04T16:48:05.759Z,11.90
2019-04-04T16:50:55.204Z,11.90
2019-04-04T16:53:44.259Z,11.80
2019-04-04T16:56:33.942Z,11.70
2019-04-04T16:59:23.212Z,11.50
2019-04-04T17:02:12.792Z,11.30
2019-04-04T17:05:01.846Z,11.20
2019-04-04T17:07:51.339Z,11.00
2019-04-04T17:10:40.469Z,10.90
2019-04-04T17:13:29.946Z,10.80
2019-04-04T17:16:21.332Z,10.80
2019-04-04T17:19:10.072Z,10.70
2019-04-04T17:21:58.731Z,10.60
2019-04-04T17:24:47.972Z,10.50
2019-04-04T17:27:39.260Z,10.40
2019-04-04T17:30:28.842Z,10.30
2019-04-04T17:33:17.629Z,10.20
2019-04-04T17:36:06.478Z,10.10
2019-04-04T17:38:56.054Z,10.10
2019-04-04T17:41:45.934Z,10.00
2019-04-04T17:44:34.498Z,9.90
2019-04-04T17:47:24.094Z,9.80
2019-04-04T17:50:18.413Z,9.80
2019-04-04T17:53:06.449Z,9.70
2019-04-04T17:55:56.291Z,9.60
2019-04-04T17:58:45.790Z,9.60
2019-04-04T18:01:35.435Z,9.50
2019-04-04T18:04:26.524Z,9.40
2019-04-04T18:07:15.402Z,9.30
2019-04-04T18:10:06.669Z,9.30
2019-04-04T18:12:55.994Z,9.20
2019-04-04T18:15:45.464Z,9.20
2019-04-04T18:18:34.409Z,9.10
2019-04-04T18:21:23.908Z,9.10
2019-04-04T18:24:13.287Z,9.00
2019-04-04T18:27:02.748Z,8.90
2019-04-04T18:29:52.094Z,8.90
2019-04-04T18:32:41.697Z,8.90
2019-04-04T18:35:30.229Z,8.90
2019-04-04T18:38:19.515Z,8.80
2019-04-04T18:41:08.480Z,8.80
2019-04-04T18:43:57.596Z,8.80
2019-04-04T18:46:47.017Z,8.70
2019-04-04T18:49:35.770Z,8.70
2019-04-04T18:52:25.347Z,8.70
2019-04-04T18:55:19.853Z,8.60
2019-04-04T18:58:04.609Z,8.60
2019-04-04T19:00:53.707Z,8.50
2019-04-04T19:03:43.555Z,8.50
2019-04-04T19:06:33.042Z,8.50
2019-04-04T19:09:22.108Z,8.40
2019-04-04T19:12:11.066Z,8.40
2019-04-04T19:14:59.952Z,8.30
2019-04-04T19:17:49.491Z,8.20
2019-04-04T19:20:38.359Z,8.20
2019-04-04T19:23:27.443Z,8.20
2019-04-04T19:26:16.346Z,8.20
2019-04-04T19:29:05.157Z,8.10
2019-04-04T19:31:54.612Z,8.10
2019-04-04T19:34:43.848Z,8.00
2019-04-04T19:37:32.644Z,8.00
2019-04-04T19:40:21.377Z,8.00
2019-04-04T19:43:17.892Z,8.00
2019-04-04T19:46:01.244Z,8.00
2019-04-04T19:48:50.545Z,7.90
2019-04-04T19:51:39.704Z,7.90
2019-04-04T19:54:29.115Z,7.90
2019-04-04T19:57:18.451Z,7.80
2019-04-04T20:00:10.068Z,7.80
2019-04-04T20:02:59.343Z,7.70
2019-04-04T20:05:48.500Z,7.70
2019-04-04T20:08:38.102Z,7.70
2019-04-04T20:11:27.215Z,7.70
2019-04-04T20:14:16.112Z,7.70
2019-04-04T20:17:05.687Z,7.60
2019-04-04T20:19:54.532Z,7.60
2019-04-04T20:22:43.514Z,7.50
2019-04-04T20:25:32.568Z,7.50
2019-04-04T20:28:21.942Z,7.50
2019-04-04T20:31:11.354Z,7.50
2019-04-04T20:34:01.918Z,7.40
2019-04-04T20:36:50.639Z,7.40
2019-04-04T20:39:40.357Z,7.40
2019-04-04T20:42:30.142Z,7.30
2019-04-04T20:45:19.259Z,7.40
2019-04-04T20:48:08.693Z,7.40
2019-04-04T20:50:58.667Z,7.30
2019-04-04T20:53:47.432Z,7.40
2019-04-04T20:56:36.674Z,7.30
2019-04-04T20:59:28.025Z,7.30
2019-04-04T21:02:16.821Z,7.30
2019-04-04T21:05:08.090Z,7.30
2019-04-04T21:07:57.247Z,7.20
2019-04-04T21:10:46.819Z,7.30
2019-04-04T21:13:36.400Z,7.30
2019-04-04T21:16:25.685Z,7.20
2019-04-04T21:19:14.943Z,7.30
2019-04-04T21:22:04.354Z,7.20
2019-04-04T21:24:53.672Z,7.10
2019-04-04T21:27:42.629Z,7.10
2019-04-04T21:30:32.123Z,7.10
2019-04-04T21:33:21.592Z,7.10
2019-04-04T21:36:11.049Z,7.10
2019-04-04T21:39:00.468Z,7.10
2019-04-04T21:41:49.903Z,7.10
2019-04-04T21:44:39.194Z,7.10
2019-04-04T21:47:28.192Z,7.00
2019-04-04T21:50:17.217Z,7.10
2019-04-04T21:53:06.446Z,7.20
2019-04-04T21:55:55.546Z,7.20
2019-04-04T21:58:44.704Z,7.30
2019-04-04T22:01:34.028Z,7.30
2019-04-04T22:04:23.566Z,7.30
2019-04-04T22:07:12.893Z,7.40
2019-04-04T22:10:02.102Z,7.40
2019-04-04T22:12:51.241Z,7.40
2019-04-04T22:15:40.946Z,7.50
2019-04-04T22:18:29.951Z,7.50
2019-04-04T22:21:18.871Z,7.50
2019-04-04T22:24:08.159Z,7.50
2019-04-04T22:26:57.032Z,7.60
2019-04-04T22:29:46.479Z,7.60
2019-04-04T22:32:35.211Z,7.60
2019-04-04T22:35:24.713Z,7.60
2019-04-04T22:38:13.616Z,7.70
2019-04-04T22:41:02.838Z,7.70
2019-04-04T22:44:02.935Z,7.70
2019-04-04T22:46:43.012Z,7.70
2019-04-04T22:49:31.877Z,7.70
2019-04-04T22:52:20.908Z,7.70
2019-04-04T22:55:10.621Z,7.80
2019-04-04T22:57:59.495Z,7.80
2019-04-04T23:00:49.484Z,7.80
2019-04-04T23:03:38.574Z,7.80
2019-04-04T23:06:27.894Z,7.80
2019-04-04T23:09:17.272Z,7.80
2019-04-04T23:12:06.558Z,7.80
2019-04-04T23:14:55.702Z,7.90
2019-04-04T23:17:45.582Z,7.90
2019-04-04T23:20:35.585Z,7.90
2019-04-04T23:23:24.520Z,7.90
2019-04-04T23:26:13.811Z,7.90
2019-04-04T23:29:03.280Z,8.00
2019-04-04T23:31:52.547Z,8.00
2019-04-04T23:34:42.025Z,8.00
2019-04-04T23:37:30.834Z,7.90
2019-04-04T23:40:20.361Z,8.00
2019-04-04T23:43:09.679Z,8.00
2019-04-04T23:45:59.415Z,8.00
2019-04-04T23:48:48.855Z,8.00
2019-04-04T23:51:38.270Z,8.10
2019-04-04T23:54:27.661Z,8.10
2019-04-04T23:57:17.158Z,8.10
